Golts, Maryland
Current Conditions -  °F | °C
As of 12:58 AM on Saturday 25 Oct 2014 (Local Time) from KDOV Reporting Station
Clear Clear  
Wind Chill: 12°   Ceiling: Unl
Heat Index: 12°   Visibility: 10mi
Dew Point:   Wind: 10mph
Humidity: 59%   Direction: 280°W
Pressure: 29.88"   Gusts: NA
Location:  39.3314°N, 75.8397°W
Report Text: KDOV 250458Z AUTO 28009KT 10SM CLR 12/04 A2988 RMK AO2 SLP121 T01210043 401990115
Loading
Personal Weather Stations






























Interactive Weather Map
Tropical Storm Tracking
New forecast layout! Learn more

10-Day Weather Forecast

Advertisements
Track Severe Weather on mobile